Flight Track Log - Related Links

Times and Time Zones

All times are in EDT time to prevent confusion due to time zone crossing. See the GJS3701 flight status page for this flight to view local times or setup timezone preferences in your user account.

Time Position Orientation Groundspeed Altitude Reporting Facility
EDT Latitude Longitude Course Direction KTS MPH feet Rate Location/Type
Thu 11:05:38 PM 42.0000 -87.9500 340° North 180 207 2,200  Level Chicago TRACON
Thu 11:06:38 PM 42.0667 -87.9333 11° North 234 269 4,700 2,250 Climbing Chicago TRACON
Thu 11:07:38 PM 42.1333 -87.9000 20° North 274 315 6,700 1,648 Climbing Chicago TRACON
Thu 11:08:09 PM 42.1497 -87.8792 43° Northeast 276 318 7,200 2,516 Climbing Chicago Center
Thu 11:09:00 PM 42.3309 -88.0119 350° North  Level FlightAware Approximate
Thu 11:09:11 PM 42.2400 -87.8292 22° Northeast 310 357 10,600  Level Chicago Center
Thu 11:10:00 PM 42.4022 -88.0428 340° North  Level FlightAware Approximate
Thu 11:10:12 PM 42.3256 -87.8364 356° North 310 357 13,200  Level Chicago Center
Thu 11:11:13 PM 42.4081 -87.8381 359° North 325 374 14,000 393 Climbing Chicago Center
Thu 11:12:14 PM 42.5144 -87.8392 360° North 327 376 14,000  Level Chicago Center
Thu 11:13:15 PM 42.6119 -87.8392 360° North 346 398 14,000  Level Chicago Center
Thu 11:14:17 PM 42.7117 -87.8447 358° North 357 411 14,000  Level Chicago Center
Thu 11:15:18 PM 42.7644 -87.9511 304° West 337 388 14,000  Level Chicago Center
Thu 11:16:19 PM 42.7975 -88.0786 289° West 353 406 14,000  Level Chicago Center
Thu 11:17:20 PM 42.8333 -88.2094 291° West 367 422 14,000  Level Chicago Center
Thu 11:18:22 PM 42.8714 -88.3444 291° West 378 435 14,000  Level Chicago Center
Thu 11:19:23 PM 42.9081 -88.4783 291° West 378 435 14,000  Level Chicago Center
Thu 11:20:24 PM 42.9436 -88.6072 291° West 366 421 14,000 -246 Level Chicago Center
Thu 11:21:25 PM 42.9783 -88.7381 290° West 364 419 13,500 -1,024 Descending Chicago Center
Thu 11:22:27 PM 43.0153 -88.8719 291° West 372 428 11,900 -1,659 Descending Chicago Center
Thu 11:23:28 PM 43.0239 -89.0206 275° West 337 388 10,100 -1,525 Descending Chicago Center
Thu 11:24:29 PM 43.0133 -89.1289 262° West 297 342 8,800 -1,475 Descending Chicago Center
Thu 11:25:30 PM 42.9778 -89.2161 241° Southwest 265 305 7,100 -1,918 Descending Chicago Center
Thu 11:26:31 PM 42.9431 -89.3019 241° Southwest 259 298 4,900 -2,000 Descending Chicago Center
Thu 11:27:33 PM 42.9828 -89.3775 306° West 276 318 3,000 -1,839 Descending Chicago Center

Login

Don't have an account? Register now (free) for customized features, flight alerts, and more!